»·PEaware :: N520MJ KSLC-KTEX

N520MJ :: KSLC-KTEX

FLIGHT INFORMATION

Flight Status: Arrived
Operator: Privately registered:
United States
More flights under this callsign
Pilot: Manuel P. (9695)
Aircraft: Unknown
(HA4T)
More flights by this aircraft type
Origin: KSLC Salt Lake City Intl
United States
Destination: KTEX Telluride Regl
United States
More flights between these airports :: More routes between these airports
Route: NSIGN4 MTU JNC ETL
File this flight plan on PilotEdge
Remarks:
Altitude:
(Current/Filed)
33,000ft
Speed:
(Current/Filed)
400kts
Departed: 14-Jul-17 02:36 PM
Arrived: 14-Jul-17 03:21 PM
Distance/Time
Traveled:
254nm/0:45
Distance/Time
To Go:
Arrived

Flight Plot

Page will automatically refresh every two minutes.

Flight plan parsing failed; only flown route is shown


Map Options




Map Legend


Flown Route
Filed Route
Departure Airport
Arrival Airport
Navaid (VOR, NDB)
Fix

Horizontal Profiles

Position Reports

Time Latitude Longitude Heading Altitude Ground
Speed
14-Jul-17 14:22 40.775679 -111.959392 357 4233ft 0kts
14-Jul-17 14:23 40.775679 -111.959392 357 4233ft 0kts
14-Jul-17 14:24 40.775679 -111.959392 357 4233ft 0kts
14-Jul-17 14:25 40.775679 -111.959392 357 4233ft 0kts
14-Jul-17 14:26 40.775679 -111.959392 357 4233ft 0kts
14-Jul-17 14:27 40.775679 -111.959392 357 4233ft 0kts
14-Jul-17 14:28 40.775679 -111.959392 357 4233ft 0kts
14-Jul-17 14:29 40.775679 -111.959392 357 4233ft 0kts
14-Jul-17 14:30 40.775679 -111.959392 357 4233ft 0kts
14-Jul-17 14:31 40.775679 -111.959392 357 4233ft 0kts
14-Jul-17 14:32 40.775680 -111.959392 357 4233ft 0kts
14-Jul-17 14:33 40.775680 -111.959392 357 4233ft 0kts
14-Jul-17 14:34 40.775680 -111.959392 357 4233ft 0kts
14-Jul-17 14:35 40.776006 -111.959492 339 4233ft 5kts
14-Jul-17 14:36 40.775985 -111.960625 182 4233ft 4kts
14-Jul-17 14:37 40.774225 -111.960627 178 4233ft 7kts
14-Jul-17 14:38 40.772854 -111.960810 226 4233ft 1kts
14-Jul-17 14:39 40.774794 -111.962053 359 4233ft 64kts
14-Jul-17 14:40 40.825888 -111.970071 348 5875ft 242kts
14-Jul-17 14:41 40.893611 -111.979505 354 8116ft 247kts
14-Jul-17 14:42 40.971578 -111.986079 352 11098ft 296kts
14-Jul-17 14:43 41.048590 -111.966839 57 13694ft 346kts
14-Jul-17 14:44 41.016601 -111.848919 152 18964ft 407kts
14-Jul-17 14:45 40.901301 -111.798600 163 21890ft 456kts
14-Jul-17 14:46 40.802476 -111.691309 134 26185ft 484kts
14-Jul-17 14:47 40.731358 -111.541617 110 29339ft 494kts
14-Jul-17 14:48 40.682307 -111.368476 112 33161ft 520kts
14-Jul-17 14:49 40.632792 -111.196943 113 33263ft 503kts
14-Jul-17 14:50 40.582413 -111.023564 113 33267ft 518kts
14-Jul-17 14:51 40.530446 -110.845913 113 33268ft 528kts
14-Jul-17 14:52 40.477291 -110.665477 112 33268ft 536kts
14-Jul-17 14:53 40.423827 -110.483387 114 33192ft 536kts
14-Jul-17 14:54 40.323158 -110.347761 138 33212ft 527kts
14-Jul-17 14:55 40.218928 -110.215515 138 33209ft 527kts
14-Jul-17 14:56 40.113253 -110.082165 138 33208ft 527kts
14-Jul-17 14:57 40.007992 -109.950752 138 33209ft 527kts
14-Jul-17 14:58 39.902017 -109.819046 138 33209ft 527kts
14-Jul-17 14:59 39.797581 -109.689835 138 33212ft 527kts
14-Jul-17 15:00 39.691692 -109.559369 138 33216ft 524kts
14-Jul-17 15:01 39.586786 -109.430750 138 33212ft 522kts
14-Jul-17 15:02 39.482253 -109.303110 139 33191ft 518kts
14-Jul-17 15:03 39.377672 -109.175994 139 31199ft 521kts
14-Jul-17 15:04 39.290598 -109.070584 139 29120ft 517kts
14-Jul-17 15:05 39.171632 -108.927097 138 26194ft 495kts
14-Jul-17 15:06 39.073725 -108.809354 136 24192ft 467kts
14-Jul-17 15:07 38.958162 -108.738666 158 24044ft 464kts
14-Jul-17 15:08 38.847065 -108.679928 157 21957ft 425kts
14-Jul-17 15:09 38.739804 -108.623334 157 19459ft 414kts
14-Jul-17 15:10 38.657951 -108.580246 156 19201ft 349kts
14-Jul-17 15:11 38.574548 -108.536491 156 17770ft 318kts
14-Jul-17 15:12 38.495086 -108.494868 156 15670ft 303kts
14-Jul-17 15:13 38.414572 -108.452792 157 14908ft 243kts
14-Jul-17 15:14 38.357836 -108.423193 158 13239ft 287kts
14-Jul-17 15:15 38.286222 -108.386142 156 13136ft 283kts
14-Jul-17 15:16 38.196894 -108.339586 157 13142ft 312kts
14-Jul-17 15:17 38.132193 -108.306050 157 12789ft 305kts
14-Jul-17 15:18 38.055892 -108.266500 154 12712ft 285kts
14-Jul-17 15:19 38.019996 -108.190547 112 12715ft 237kts
14-Jul-17 15:20 37.998163 -108.119318 107 12535ft 209kts
14-Jul-17 15:21 37.983762 -108.054427 105 11974ft 170kts
14-Jul-17 15:22 37.972341 -107.997746 105 11234ft 171kts
14-Jul-17 15:23 37.960432 -107.940476 104 9589ft 164kts
14-Jul-17 15:24 37.952312 -107.901718 81 9084ft 2kts
14-Jul-17 15:25 37.953536 -107.901703 284 9084ft 4kts
14-Jul-17 15:26 37.954403 -107.902476 15 9084ft 4kts
14-Jul-17 15:27 37.955133 -107.901604 101 9084ft 1kts
14-Jul-17 15:28 37.955215 -107.901668 285 9084ft 0kts
14-Jul-17 15:29 37.955215 -107.901668 285 9084ft 0kts
14-Jul-17 15:30 37.955215 -107.901668 285 9084ft 0kts
14-Jul-17 15:31 37.955215 -107.901668 285 9084ft 0kts
14-Jul-17 15:32 37.955215 -107.901668 285 9084ft 0kts
14-Jul-17 15:33 37.955215 -107.901668 285 9084ft 0kts
14-Jul-17 15:34 37.955215 -107.901668 285 9084ft 0kts
14-Jul-17 15:35 37.955215 -107.901668 285 9084ft 0kts
14-Jul-17 15:36 37.955215 -107.901668 285 9084ft 0kts
14-Jul-17 15:37 37.955215 -107.901668 285 9084ft 0kts
14-Jul-17 15:38 37.955215 -107.901668 285 9084ft 0kts

Navigation Log

Ident Type
Flight plan parsing failed, navigation log unavailable